Terminal Aerodrome Forecast
Issued by NWS

Home | Current Version | Previous Version | Text Only | Print | Product List | Glossary On
Versions: 1 2 3 4 5 6 7 8 9 10 11 12 13
790
FTUS43 KGRB 192326
TAFAUW
TAF
KAUW 192326Z 2000/2024 05009KT 5SM -FZDZ BR OVC010
      TEMPO 2000/2003 1SM -FZRAPL BR BKN006
     FM200300 05007KT 3SM -FZDZ BR OVC008
     FM201000 06004KT 2SM -FZDZ BR OVC003
     FM201700 31004KT 6SM BR OVC005
     FM201900 30006KT P6SM OVC008=

USA.gov is the U.S. government's official web portal to all federal, state and local government web resources and services.